Reading, Pennsylvania
Current Conditions -  °F | °C
As of 8:01 AM on Thursday 30 Oct 2014 (Local Time) from KRDG Reporting Station
Few Clouds Few Clouds  
Wind Chill: 43°   Ceiling: Unl
Heat Index: 43°   Visibility: 10mi
Dew Point: 40°   Wind: 0mph
Humidity: 89%   Direction: NA
Pressure: 30.02"   Gusts: NA
Location:  40.34°N, 75.93°W
Report Text: KRDG 301201Z 00000KT 10SM FEW002 FEW046 06/04 A3002 RMK AO2 T00610044
Loading
Personal Weather Stations






























Interactive Weather Map New forecast layout! Learn more

10-Day Weather Forecast

Advertisements
Track Severe Weather on mobile